Naples, FL (34101)

4:27 AM EDT on September 23, 2014 (GMT -0400)
Foxfire | Change Station
CLOSE
Current Station
Personal Weather Station
Location: Naples, FL
Elevation: 40 ft
Nearby Weather Stations

Elev 40 ft 26.14 °N, 81.75 °W | Updated 13 minutes ago

Clear
Clear
73.1 °F
Feels Like 73.1 °F
N
5.0
Wind Variable Wind from ENE

Today
High -- | Low -- °F
--% Chance of Precip.
Yesterday
High -- | Low -- °F
Precip. -- in
7:16 AM 7:22 PM
Waning Crescent, 1% visible
Pressure 29.95 in
Visibility 10.0 miles
Clouds Clear
Dew Point 72 °F
Humidity 97%
Rainfall 0.00 in
Snow Depth Not available.
UV 0 out of 12
Pollen 2.20 out of 12
Air Quality Not available.
Flu Activity Not available.
METAR KAPF 230753Z 04006KT 10SM CLR 23/22 A2995 RMK AO2 SLP140 T02330217

More Conditions Fewer Conditions

Pressure 29.95 in
Visibility 10.0 miles
Clouds Clear
Dew Point 72 °F
Humidity 97%
Rainfall 0.00 in
Snow Depth Not available.
UV 0 out of 12
Pollen 2.20 out of 12
Air Quality Not available.
Flu Activity Not available.
METAR KAPF 230753Z 04006KT 10SM CLR 23/22 A2995 RMK AO2 SLP140 T02330217

More Conditions Fewer Conditions

10-Day Weather Forecast

Almanac

Astronomy

Sep. 23, 2014 Rise Set
Actual Time 7:16 AM EDT 7:22 PM EDT
Civil Twilight 6:53 AM EDT 7:45 PM EDT
Nautical Twilight 6:26 AM EDT 8:12 PM EDT
Astronomical Twilight 5:59 AM EDT 8:39 PM EDT
Moon 6:40 AM EDT 7:02 PM EDT
Length of Visible Light 12h 52m
Length of Day
12h 06m
Tomorrow will be 1m 31s shorter.
Waning Crescent, 1% of the Moon is Illuminated
Today
Waning Crescent
Sep 24
New
Oct 1
First Quarter
Oct 8
Full
Oct 15
Last Quarter

Today's Extremes

State Highs State Lows

Community

WunderPhotos

Upload Photos

1,755,632 photos uploaded!

Nearby

Snow Depth

Station Depth Elevation
No new snow has been reported.

Earthquake Activity

City Distance Mag. Time & Date
No recent earthquake activity has been reported nearby.
Minimum magnitude displayed is 2.5.

Coastal Water Temperatures

Place Temperature
Naples, FL 88.0 °F

Nearby Weather Stations